createdAt,value
2023-03-08T00:00:15.621Z,16.50
2023-03-08T00:03:17.437Z,12.13
2023-03-08T00:06:19.164Z,11.20
2023-03-08T00:09:20.885Z,13.20
2023-03-08T00:12:22.840Z,9.63
2023-03-08T00:15:24.938Z,15.03
2023-03-08T00:18:26.967Z,13.60
2023-03-08T00:21:28.759Z,15.90
2023-03-08T00:24:31.135Z,15.13
2023-03-08T00:27:33.077Z,13.40
2023-03-08T00:30:35.399Z,17.23
2023-03-08T00:33:37.180Z,19.37
2023-03-08T00:36:38.918Z,15.10
2023-03-08T00:39:40.665Z,14.97
2023-03-08T00:42:42.417Z,14.10
2023-03-08T00:45:44.310Z,15.60
2023-03-08T00:48:46.052Z,20.80
2023-03-08T00:51:50.097Z,15.87
2023-03-08T00:54:51.796Z,19.50
2023-03-08T00:57:53.582Z,18.50
2023-03-08T01:00:56.025Z,15.47
2023-03-08T01:03:58.003Z,16.83
2023-03-08T01:07:00.963Z,18.63
2023-03-08T01:10:05.363Z,17.87
2023-03-08T01:13:08.318Z,18.90
2023-03-08T01:16:22.221Z,17.20
2023-03-08T01:19:23.950Z,19.07
2023-03-08T01:22:25.705Z,20.87
2023-03-08T01:25:27.650Z,15.73
2023-03-08T01:28:29.773Z,18.70
2023-03-08T01:31:31.599Z,17.30
2023-03-08T01:34:35.848Z,16.57
2023-03-08T01:37:37.581Z,21.20
2023-03-08T01:40:39.320Z,21.60
2023-03-08T01:43:41.289Z,20.73
2023-03-08T01:46:43.972Z,19.57
2023-03-08T01:50:02.134Z,20.27
2023-03-08T01:53:04.093Z,18.07
2023-03-08T01:56:12.831Z,18.70
2023-03-08T01:59:15.268Z,22.13
2023-03-08T02:02:27.226Z,18.07
2023-03-08T02:05:31.580Z,16.80
2023-03-08T02:08:42.262Z,13.00
2023-03-08T02:11:44.403Z,16.83
2023-03-08T02:14:46.492Z,17.90
2023-03-08T02:17:48.406Z,18.67
2023-03-08T02:20:50.250Z,23.40
2023-03-08T02:23:52.056Z,19.37
2023-03-08T02:27:01.691Z,16.17
2023-03-08T02:30:03.868Z,19.40
2023-03-08T02:33:05.555Z,19.00
2023-03-08T02:36:08.282Z,18.53
2023-03-08T02:39:10.116Z,15.57
2023-03-08T02:42:11.820Z,18.40
2023-03-08T02:45:13.545Z,15.10
2023-03-08T02:48:16.070Z,20.73
2023-03-08T02:51:17.886Z,12.67
2023-03-08T02:54:19.643Z,16.63
2023-03-08T02:57:21.931Z,16.37
2023-03-08T03:00:24.779Z,17.73
2023-03-08T03:03:27.464Z,16.53
2023-03-08T03:06:29.413Z,19.60
2023-03-08T03:09:34.176Z,15.13
2023-03-08T03:12:36.005Z,16.23
2023-03-08T03:15:41.067Z,16.20
2023-03-08T03:18:44.048Z,17.40
2023-03-08T03:21:45.819Z,15.47
2023-03-08T03:24:50.327Z,15.00
2023-03-08T03:27:54.158Z,22.87
2023-03-08T03:30:56.597Z,21.53
2023-03-08T03:33:58.496Z,16.23
2023-03-08T03:37:02.218Z,18.33
2023-03-08T03:40:05.557Z,19.07
2023-03-08T03:43:07.651Z,20.27
2023-03-08T03:46:12.722Z,19.90
2023-03-08T03:49:16.355Z,19.40
2023-03-08T03:52:20.164Z,22.43
2023-03-08T03:55:30.449Z,19.00
2023-03-08T03:58:33.385Z,23.17
2023-03-08T04:01:35.701Z,25.07
2023-03-08T04:04:51.812Z,23.37
2023-03-08T04:07:58.723Z,25.23
2023-03-08T04:11:04.250Z,31.40
2023-03-08T04:14:07.344Z,23.77
2023-03-08T04:17:09.231Z,27.03
2023-03-08T04:20:19.256Z,26.97
2023-03-08T04:23:28.255Z,22.63
2023-03-08T04:26:30.473Z,25.87
2023-03-08T04:29:32.285Z,27.60
2023-03-08T04:32:34.902Z,26.90
2023-03-08T04:35:37.485Z,25.40
2023-03-08T04:38:40.360Z,23.93
2023-03-08T04:41:42.169Z,24.10
2023-03-08T04:45:00.553Z,24.80
2023-03-08T04:48:02.785Z,26.83
2023-03-08T04:51:07.779Z,21.33
2023-03-08T04:54:09.821Z,26.37
2023-03-08T04:57:18.504Z,24.17
2023-03-08T05:00:21.968Z,23.77
2023-03-08T05:03:23.955Z,29.50
2023-03-08T05:06:27.236Z,25.03
2023-03-08T05:09:30.998Z,27.47
2023-03-08T05:12:32.796Z,28.43
2023-03-08T05:15:35.972Z,25.33
2023-03-08T05:18:38.119Z,25.53
2023-03-08T05:21:41.228Z,19.47
2023-03-08T05:24:43.073Z,22.17
2023-03-08T05:27:47.599Z,24.27
2023-03-08T05:30:49.878Z,24.90
2023-03-08T05:33:52.076Z,35.47
2023-03-08T05:37:01.627Z,23.77
2023-03-08T05:40:06.378Z,29.53
2023-03-08T05:43:11.455Z,29.70
2023-03-08T05:46:19.112Z,30.33
2023-03-08T05:49:22.235Z,27.80
2023-03-08T05:52:24.105Z,25.77
2023-03-08T05:55:25.975Z,29.87
2023-03-08T05:58:28.915Z,26.93
2023-03-08T06:01:30.763Z,27.67
2023-03-08T06:04:41.106Z,30.83
2023-03-08T06:07:44.863Z,30.50
2023-03-08T06:10:48.904Z,27.50
2023-03-08T06:13:51.387Z,30.53
2023-03-08T06:16:53.306Z,30.80
2023-03-08T06:19:59.349Z,30.63
2023-03-08T06:23:01.172Z,36.43
2023-03-08T06:26:04.467Z,31.23
2023-03-08T06:29:07.637Z,37.80
2023-03-08T06:32:09.632Z,35.43
2023-03-08T06:35:14.073Z,36.50
2023-03-08T06:38:22.706Z,31.60
2023-03-08T06:41:24.540Z,24.33
2023-03-08T06:44:30.792Z,26.47
2023-03-08T06:47:32.578Z,31.27
2023-03-08T06:50:34.638Z,34.77
2023-03-08T06:53:38.049Z,29.90
2023-03-08T06:56:41.191Z,29.57
2023-03-08T06:59:42.997Z,35.07
2023-03-08T07:02:44.776Z,30.03
2023-03-08T07:05:46.598Z,35.93
2023-03-08T07:08:48.311Z,24.93
2023-03-08T07:11:50.001Z,28.73
2023-03-08T07:14:54.556Z,24.60
2023-03-08T07:17:57.237Z,29.10
2023-03-08T07:20:59.028Z,28.63
2023-03-08T07:24:00.716Z,30.73
2023-03-08T07:27:02.402Z,32.70
2023-03-08T07:30:04.606Z,33.73
2023-03-08T07:33:06.399Z,32.07
2023-03-08T07:36:08.336Z,36.90
2023-03-08T07:39:10.173Z,33.77
2023-03-08T07:42:11.909Z,31.03
2023-03-08T07:45:14.421Z,27.70
2023-03-08T07:48:16.238Z,25.83
2023-03-08T07:51:18.014Z,32.50
2023-03-08T07:54:21.619Z,33.90
2023-03-08T07:57:24.493Z,33.93
2023-03-08T08:00:26.645Z,30.43
2023-03-08T08:03:29.856Z,31.60
2023-03-08T08:06:31.657Z,26.23
2023-03-08T08:09:33.972Z,26.67
2023-03-08T08:12:35.671Z,67.30
2023-03-08T08:15:37.500Z,26.73
2023-03-08T08:18:39.646Z,23.77
2023-03-08T08:21:41.601Z,23.63
2023-03-08T08:24:43.520Z,25.90
2023-03-08T08:27:45.237Z,30.77
2023-03-08T08:30:56.293Z,22.90
2023-03-08T08:33:59.144Z,22.63
2023-03-08T08:37:00.885Z,22.50
2023-03-08T08:40:03.803Z,26.60
2023-03-08T08:43:05.498Z,22.33
2023-03-08T08:46:07.829Z,16.77
2023-03-08T08:49:10.724Z,21.73
2023-03-08T08:52:12.410Z,19.70
2023-03-08T08:55:14.107Z,14.27
2023-03-08T08:58:15.982Z,13.00
2023-03-08T09:01:20.064Z,9.10
2023-03-08T09:04:21.938Z,9.57
2023-03-08T09:07:23.720Z,9.60
2023-03-08T09:10:28.499Z,10.50
2023-03-08T09:13:30.860Z,9.53
2023-03-08T09:16:33.947Z,11.30
2023-03-08T09:19:36.398Z,9.70
2023-03-08T09:22:38.394Z,8.33
2023-03-08T09:25:40.217Z,11.10
2023-03-08T09:28:41.911Z,19.30
2023-03-08T09:31:45.319Z,12.30
2023-03-08T09:34:47.197Z,13.07
2023-03-08T09:37:48.907Z,12.33
2023-03-08T09:41:25.729Z,11.07
2023-03-08T09:44:48.730Z,12.20
2023-03-08T09:47:54.886Z,7.13
2023-03-08T09:51:03.811Z,9.83
2023-03-08T09:54:11.174Z,6.97
2023-03-08T09:57:18.439Z,9.03
2023-03-08T10:00:23.554Z,7.57
2023-03-08T10:04:08.700Z,9.10
2023-03-08T10:07:22.027Z,9.00
2023-03-08T10:11:03.394Z,6.97
2023-03-08T10:14:27.604Z,6.97
2023-03-08T10:17:44.616Z,6.33
2023-03-08T10:20:47.075Z,7.60
2023-03-08T10:24:16.319Z,6.83
2023-03-08T10:27:27.832Z,4.83
2023-03-08T10:30:47.606Z,10.47
2023-03-08T10:33:53.568Z,7.13
2023-03-08T10:37:01.334Z,5.90
2023-03-08T10:40:09.404Z,6.67
2023-03-08T10:43:29.101Z,9.57
2023-03-08T10:46:32.830Z,6.60
2023-03-08T10:49:34.587Z,7.90
2023-03-08T10:52:36.480Z,5.63
2023-03-08T10:55:50.438Z,4.10
2023-03-08T10:58:56.175Z,3.73
2023-03-08T11:02:03.299Z,4.60
2023-03-08T11:05:22.030Z,3.83
2023-03-08T11:08:33.246Z,3.00
2023-03-08T11:11:42.215Z,4.97
2023-03-08T11:14:44.026Z,4.03
2023-03-08T11:18:23.946Z,3.80
2023-03-08T11:21:49.836Z,2.83
2023-03-08T11:25:23.806Z,3.53
2023-03-08T11:28:32.231Z,3.97
2023-03-08T11:31:43.523Z,4.33
2023-03-08T11:35:14.990Z,3.17
2023-03-08T11:38:26.748Z,5.20
2023-03-08T11:41:57.222Z,3.10
2023-03-08T11:45:23.510Z,6.27
2023-03-08T11:48:30.946Z,3.90
2023-03-08T11:51:36.696Z,4.43
2023-03-08T11:55:01.402Z,7.43
2023-03-08T11:58:27.739Z,4.33
2023-03-08T12:01:35.841Z,6.17
2023-03-08T12:04:45.951Z,4.43
2023-03-08T12:07:55.615Z,3.53
2023-03-08T12:11:05.757Z,4.13
2023-03-08T12:14:18.510Z,2.90
2023-03-08T12:17:29.696Z,2.93
2023-03-08T12:20:37.640Z,3.67
2023-03-08T12:24:15.131Z,2.67
2023-03-08T12:27:53.058Z,1.77
2023-03-08T12:31:27.913Z,2.47
2023-03-08T12:34:43.977Z,2.00
2023-03-08T12:37:56.345Z,1.13
2023-03-08T12:40:58.203Z,1.73
2023-03-08T12:44:19.585Z,3.47
2023-03-08T12:47:22.805Z,2.37
2023-03-08T12:50:25.035Z,1.50
2023-03-08T12:53:31.223Z,1.40
2023-03-08T12:56:49.785Z,3.93
2023-03-08T12:59:58.376Z,1.93
2023-03-08T13:03:15.271Z,2.17
2023-03-08T13:06:23.097Z,2.50
2023-03-08T13:09:30.114Z,3.93
2023-03-08T13:13:05.954Z,1.50
2023-03-08T13:16:21.007Z,2.33
2023-03-08T13:19:28.792Z,4.73
2023-03-08T13:23:07.694Z,2.23
2023-03-08T13:26:09.457Z,2.67
2023-03-08T13:29:16.868Z,3.20
2023-03-08T13:32:20.726Z,3.33
2023-03-08T13:35:22.764Z,3.53
2023-03-08T13:38:25.888Z,2.17
2023-03-08T13:41:47.058Z,4.53
2023-03-08T13:44:48.757Z,2.77
2023-03-08T13:47:53.124Z,4.60
2023-03-08T13:50:54.905Z,5.27
2023-03-08T13:53:57.239Z,4.83
2023-03-08T13:57:01.002Z,7.93
2023-03-08T14:00:28.130Z,7.07
2023-03-08T14:03:32.324Z,6.07
2023-03-08T14:06:35.608Z,5.97
2023-03-08T14:09:38.451Z,7.47
2023-03-08T14:12:40.366Z,6.67
2023-03-08T14:15:49.412Z,6.23
2023-03-08T14:18:51.473Z,6.53
2023-03-08T14:22:10.230Z,5.33
2023-03-08T14:25:30.339Z,5.67
2023-03-08T14:28:41.544Z,6.33
2023-03-08T14:32:24.334Z,4.63
2023-03-08T14:35:32.732Z,4.57
2023-03-08T14:38:35.511Z,5.90
2023-03-08T14:41:37.596Z,7.63
2023-03-08T14:44:39.458Z,4.97
2023-03-08T14:47:50.530Z,4.10
2023-03-08T14:51:26.350Z,5.70
2023-03-08T14:54:36.503Z,7.90
2023-03-08T14:57:38.214Z,6.77
2023-03-08T15:00:54.648Z,6.27
2023-03-08T15:03:57.360Z,5.20
2023-03-08T15:06:59.243Z,6.93
2023-03-08T15:10:03.625Z,6.97
2023-03-08T15:13:10.401Z,6.03
2023-03-08T15:16:14.510Z,5.80
2023-03-08T15:19:16.642Z,4.27
2023-03-08T15:22:18.426Z,5.20
2023-03-08T15:25:24.779Z,5.63
2023-03-08T15:28:26.718Z,4.07
2023-03-08T15:31:28.686Z,4.80
2023-03-08T15:34:30.416Z,4.00
2023-03-08T15:37:32.372Z,13.77
2023-03-08T15:40:34.923Z,3.77
2023-03-08T15:43:36.851Z,4.87
2023-03-08T15:46:39.733Z,4.33
2023-03-08T15:49:41.627Z,5.20
2023-03-08T15:52:44.280Z,4.10
2023-03-08T15:55:45.998Z,7.60
2023-03-08T15:58:47.787Z,10.17
2023-03-08T16:01:49.600Z,5.80
2023-03-08T16:04:55.591Z,6.63
2023-03-08T16:07:59.996Z,5.13
2023-03-08T16:11:04.092Z,7.27
2023-03-08T16:14:05.889Z,6.77
2023-03-08T16:17:08.982Z,8.97
2023-03-08T16:20:12.317Z,5.90
2023-03-08T16:23:14.042Z,5.40
2023-03-08T16:26:17.633Z,5.33
2023-03-08T16:29:20.253Z,8.03
2023-03-08T16:32:22.274Z,5.00
2023-03-08T16:35:23.980Z,5.40
2023-03-08T16:38:25.762Z,8.17
2023-03-08T16:41:29.907Z,25.53
2023-03-08T16:44:31.737Z,16.83
2023-03-08T16:47:33.506Z,18.47
2023-03-08T16:50:35.220Z,8.27
2023-03-08T16:53:36.928Z,6.60
2023-03-08T16:56:40.660Z,7.33
2023-03-08T16:59:42.776Z,5.17
2023-03-08T17:02:45.530Z,4.13
2023-03-08T17:05:47.969Z,5.17
2023-03-08T17:08:49.908Z,4.80
2023-03-08T17:11:51.634Z,4.27
2023-03-08T17:14:53.375Z,4.87
2023-03-08T17:17:55.907Z,5.73
2023-03-08T17:20:57.797Z,5.67
2023-03-08T17:23:59.915Z,4.03
2023-03-08T17:27:01.641Z,4.80
2023-03-08T17:30:04.794Z,6.17
2023-03-08T17:33:06.874Z,5.63
2023-03-08T17:36:09.784Z,11.17
2023-03-08T17:39:11.627Z,5.37
2023-03-08T17:42:13.357Z,6.00
2023-03-08T17:45:16.184Z,7.03
2023-03-08T17:48:17.893Z,6.90
2023-03-08T17:51:22.341Z,6.80
2023-03-08T17:54:24.288Z,7.57
2023-03-08T17:57:26.769Z,6.30
2023-03-08T18:00:28.545Z,5.10
2023-03-08T18:03:30.264Z,8.10
2023-03-08T18:06:34.660Z,9.17
2023-03-08T18:09:36.571Z,6.50
2023-03-08T18:12:38.272Z,5.87
2023-03-08T18:15:40.073Z,8.00
2023-03-08T18:18:41.785Z,8.47
2023-03-08T18:21:43.586Z,7.63
2023-03-08T18:24:45.313Z,7.47
2023-03-08T18:27:47.197Z,6.77
2023-03-08T18:30:49.078Z,6.50
2023-03-08T18:33:52.421Z,13.83
2023-03-08T18:36:58.361Z,11.63
2023-03-08T18:40:00.289Z,11.57
2023-03-08T18:43:03.227Z,12.13
2023-03-08T18:46:06.810Z,9.30
2023-03-08T18:49:11.788Z,14.20
2023-03-08T18:52:13.557Z,7.63
2023-03-08T18:55:15.439Z,9.30
2023-03-08T18:58:17.143Z,7.07
2023-03-08T19:01:19.076Z,8.33
2023-03-08T19:04:20.863Z,9.83
2023-03-08T19:07:22.641Z,14.90
2023-03-08T19:10:24.354Z,10.70
2023-03-08T19:13:26.272Z,11.73
2023-03-08T19:16:31.546Z,8.13
2023-03-08T19:19:33.392Z,9.30
2023-03-08T19:22:35.237Z,6.57
2023-03-08T19:25:58.116Z,10.37
2023-03-08T19:29:00.880Z,7.07
2023-03-08T19:32:05.509Z,8.73
2023-03-08T19:35:07.602Z,9.67
2023-03-08T19:38:09.444Z,9.63
2023-03-08T19:41:11.953Z,9.47
2023-03-08T19:44:14.446Z,9.13
2023-03-08T19:47:16.607Z,9.60
2023-03-08T19:50:18.542Z,10.23
2023-03-08T19:53:20.247Z,7.33
2023-03-08T19:56:23.705Z,8.43
2023-03-08T19:59:26.108Z,8.60
2023-03-08T20:02:28.198Z,8.50
2023-03-08T20:05:30.396Z,9.07
2023-03-08T20:08:33.863Z,10.80
2023-03-08T20:11:35.864Z,10.67
2023-03-08T20:14:37.777Z,12.53
2023-03-08T20:17:39.571Z,12.20
2023-03-08T20:20:41.441Z,11.77
2023-03-08T20:23:43.172Z,11.20
2023-03-08T20:26:45.813Z,12.23
2023-03-08T20:29:47.492Z,11.13
2023-03-08T20:32:52.084Z,12.03
2023-03-08T20:36:00.809Z,12.20
2023-03-08T20:39:02.671Z,12.47
2023-03-08T20:42:04.433Z,11.70
2023-03-08T20:45:06.948Z,14.40
2023-03-08T20:48:08.701Z,10.50
2023-03-08T20:51:19.091Z,12.03
2023-03-08T20:54:20.816Z,16.03
2023-03-08T20:57:22.965Z,11.87
2023-03-08T21:00:25.413Z,10.67
2023-03-08T21:03:27.532Z,12.77
2023-03-08T21:06:31.363Z,15.43
2023-03-08T21:09:33.696Z,12.50
2023-03-08T21:12:36.366Z,14.03
2023-03-08T21:15:39.555Z,14.63
2023-03-08T21:18:45.962Z,16.20
2023-03-08T21:21:47.821Z,13.33
2023-03-08T21:24:49.550Z,14.00
2023-03-08T21:27:51.271Z,15.53
2023-03-08T21:30:53.020Z,12.93
2023-03-08T21:33:54.923Z,13.90
2023-03-08T21:36:56.900Z,13.10
2023-03-08T21:39:58.784Z,16.07
2023-03-08T21:43:00.516Z,12.80
2023-03-08T21:46:04.464Z,20.03
2023-03-08T21:49:07.328Z,14.73
2023-03-08T21:52:09.969Z,16.47
2023-03-08T21:55:11.771Z,12.80
2023-03-08T21:58:13.520Z,15.27
2023-03-08T22:01:22.584Z,15.33
2023-03-08T22:04:26.033Z,13.10
2023-03-08T22:07:27.760Z,12.73
2023-03-08T22:10:29.487Z,13.87
2023-03-08T22:13:31.308Z,16.33
2023-03-08T22:16:37.635Z,14.27
2023-03-08T22:19:39.386Z,15.47
2023-03-08T22:22:41.140Z,17.60
2023-03-08T22:25:42.881Z,13.37
2023-03-08T22:28:44.616Z,14.77
2023-03-08T22:31:46.343Z,14.43
2023-03-08T22:34:48.209Z,12.10
2023-03-08T22:37:50.244Z,16.87
2023-03-08T22:40:51.976Z,12.03
2023-03-08T22:43:53.968Z,16.23
2023-03-08T22:46:55.796Z,14.87
2023-03-08T22:49:57.639Z,15.13
2023-03-08T22:52:59.438Z,17.97
2023-03-08T22:56:01.326Z,15.63
2023-03-08T22:59:03.554Z,15.23
2023-03-08T23:02:05.836Z,15.47
2023-03-08T23:05:08.017Z,18.20
2023-03-08T23:08:09.777Z,16.27
2023-03-08T23:11:12.107Z,15.43
2023-03-08T23:14:14.581Z,17.07
2023-03-08T23:17:16.317Z,14.70
2023-03-08T23:20:19.871Z,18.07
2023-03-08T23:23:24.959Z,16.27
2023-03-08T23:26:28.265Z,18.63
2023-03-08T23:29:30.553Z,19.27
2023-03-08T23:32:32.540Z,19.17
2023-03-08T23:35:34.341Z,18.13
2023-03-08T23:38:36.135Z,16.67
2023-03-08T23:41:39.401Z,19.00
2023-03-08T23:44:41.146Z,18.43
2023-03-08T23:47:42.839Z,20.53
2023-03-08T23:50:44.549Z,19.90
2023-03-08T23:53:51.069Z,19.53
2023-03-08T23:56:52.808Z,16.13
2023-03-08T23:59:54.506Z,16.70
